createdAt,value
2022-12-04T00:00:53.325Z,59.84
2022-12-04T00:03:19.600Z,60.09
2022-12-04T00:05:45.945Z,60.20
2022-12-04T00:08:12.348Z,60.13
2022-12-04T00:10:38.706Z,60.21
2022-12-04T00:13:04.965Z,60.03
2022-12-04T00:15:31.237Z,59.76
2022-12-04T00:17:57.515Z,59.87
2022-12-04T00:20:23.774Z,60.31
2022-12-04T00:22:50.058Z,60.03
2022-12-04T00:25:16.303Z,60.33
2022-12-04T00:27:42.585Z,59.79
2022-12-04T00:30:08.855Z,59.82
2022-12-04T00:32:35.106Z,60.22
2022-12-04T00:35:01.357Z,60.24
2022-12-04T00:37:27.668Z,59.83
2022-12-04T00:39:54.200Z,59.88
2022-12-04T00:42:20.677Z,59.53
2022-12-04T00:44:46.960Z,59.69
2022-12-04T00:47:13.206Z,59.57
2022-12-04T00:49:39.484Z,59.85
2022-12-04T00:52:05.762Z,59.76
2022-12-04T00:54:32.106Z,59.95
2022-12-04T00:56:58.366Z,59.52
2022-12-04T00:59:24.632Z,59.84
2022-12-04T01:01:50.890Z,59.89
2022-12-04T01:04:17.150Z,59.65
2022-12-04T01:06:43.403Z,59.52
2022-12-04T01:09:09.700Z,59.49
2022-12-04T01:11:35.993Z,59.60
2022-12-04T01:14:02.256Z,59.72
2022-12-04T01:16:28.555Z,59.18
2022-12-04T01:18:54.874Z,59.66
2022-12-04T01:21:21.148Z,59.33
2022-12-04T01:23:47.401Z,59.31
2022-12-04T01:26:13.658Z,59.53
2022-12-04T01:28:39.901Z,59.85
2022-12-04T01:31:06.164Z,60.04
2022-12-04T01:33:32.418Z,59.75
2022-12-04T01:35:58.693Z,60.09
2022-12-04T01:38:24.945Z,59.52
2022-12-04T01:40:51.221Z,59.59
2022-12-04T01:43:17.503Z,59.48
2022-12-04T01:45:43.903Z,59.42
2022-12-04T01:48:10.189Z,59.41
2022-12-04T01:50:36.459Z,59.62
2022-12-04T01:53:02.725Z,60.04
2022-12-04T01:55:29.127Z,59.97
2022-12-04T01:57:55.391Z,60.15
2022-12-04T02:00:21.652Z,60.00
2022-12-04T02:02:47.985Z,60.06
2022-12-04T02:05:14.308Z,59.86
2022-12-04T02:07:40.611Z,59.73
2022-12-04T02:10:06.948Z,59.67
2022-12-04T02:12:33.212Z,59.87
2022-12-04T02:14:59.468Z,60.15
2022-12-04T02:17:25.750Z,60.02
2022-12-04T02:19:52.111Z,60.35
2022-12-04T02:22:18.512Z,60.48
2022-12-04T02:24:49.762Z,60.23
2022-12-04T02:27:16.510Z,59.93
2022-12-04T02:29:42.761Z,59.98
2022-12-04T02:32:09.016Z,60.14
2022-12-04T02:34:35.278Z,59.94
2022-12-04T02:37:01.548Z,60.18
2022-12-04T02:39:27.821Z,60.51
2022-12-04T02:41:54.102Z,60.39
2022-12-04T02:44:20.350Z,60.65
2022-12-04T02:46:46.598Z,60.46
2022-12-04T02:49:12.859Z,60.72
2022-12-04T02:51:39.118Z,60.57
2022-12-04T02:54:05.377Z,60.31
2022-12-04T02:56:31.656Z,60.16
2022-12-04T02:58:57.943Z,59.96
2022-12-04T03:01:24.294Z,60.08
2022-12-04T03:03:50.597Z,59.81
2022-12-04T03:06:16.874Z,59.72
2022-12-04T03:08:43.118Z,59.47
2022-12-04T03:11:09.380Z,59.91
2022-12-04T03:13:35.653Z,59.72
2022-12-04T03:16:01.926Z,59.49
2022-12-04T03:18:28.208Z,59.39
2022-12-04T03:20:54.479Z,59.49
2022-12-04T03:23:20.765Z,59.77
2022-12-04T03:25:47.048Z,59.80
2022-12-04T03:28:13.305Z,59.95
2022-12-04T03:30:39.666Z,59.56
2022-12-04T03:33:05.947Z,60.04
2022-12-04T03:35:32.236Z,59.89
2022-12-04T03:37:58.483Z,60.08
2022-12-04T03:40:24.761Z,60.37
2022-12-04T03:42:51.033Z,60.14
2022-12-04T03:45:17.317Z,60.08
2022-12-04T03:47:43.605Z,60.59
2022-12-04T03:50:09.890Z,60.84
2022-12-04T03:52:36.160Z,60.91
2022-12-04T03:55:02.439Z,61.42
2022-12-04T03:57:28.686Z,61.10
2022-12-04T03:59:56.084Z,60.97
2022-12-04T04:02:22.724Z,60.88
2022-12-04T04:04:49.115Z,60.98
2022-12-04T04:07:15.394Z,61.09
2022-12-04T04:09:41.650Z,61.07
2022-12-04T04:12:07.918Z,60.71
2022-12-04T04:14:34.203Z,60.51
2022-12-04T04:17:00.457Z,60.61
2022-12-04T04:19:26.813Z,60.49
2022-12-04T04:21:53.066Z,60.62
2022-12-04T04:24:19.336Z,60.46
2022-12-04T04:26:45.605Z,60.48
2022-12-04T04:29:11.850Z,60.14
2022-12-04T04:31:38.189Z,60.00
2022-12-04T04:34:04.502Z,60.49
2022-12-04T04:36:30.792Z,60.03
2022-12-04T04:38:57.037Z,59.78
2022-12-04T04:41:23.310Z,59.64
2022-12-04T04:43:49.599Z,59.85
2022-12-04T04:46:16.012Z,60.00
2022-12-04T04:48:42.314Z,60.14
2022-12-04T04:51:08.590Z,60.10
2022-12-04T04:53:34.845Z,60.22
2022-12-04T04:56:01.114Z,60.53
2022-12-04T04:58:27.369Z,60.51
2022-12-04T05:00:53.649Z,60.27
2022-12-04T05:03:20.001Z,60.19
2022-12-04T05:05:46.397Z,60.38
2022-12-04T05:08:12.679Z,59.98
2022-12-04T05:10:38.974Z,59.89
2022-12-04T05:13:05.253Z,59.88
2022-12-04T05:15:31.508Z,59.85
2022-12-04T05:17:57.759Z,60.21
2022-12-04T05:20:24.018Z,60.37
2022-12-04T05:22:50.285Z,60.06
2022-12-04T05:25:16.562Z,60.14
2022-12-04T05:27:42.825Z,59.98
2022-12-04T05:30:09.085Z,60.34
2022-12-04T05:32:35.341Z,60.49
2022-12-04T05:35:05.125Z,60.21
2022-12-04T05:37:34.042Z,60.62
2022-12-04T05:40:00.311Z,60.46
2022-12-04T05:42:26.569Z,60.63
2022-12-04T05:44:52.886Z,60.55
2022-12-04T05:47:19.145Z,60.20
2022-12-04T05:49:45.417Z,60.77
2022-12-04T05:52:11.692Z,60.16
2022-12-04T05:54:37.945Z,60.11
2022-12-04T05:57:04.214Z,60.20
2022-12-04T05:59:30.475Z,60.73
2022-12-04T06:01:56.807Z,60.78
2022-12-04T06:04:23.117Z,61.12
2022-12-04T06:06:49.389Z,60.75
2022-12-04T06:09:15.655Z,60.51
2022-12-04T06:11:41.920Z,60.87
2022-12-04T06:14:08.192Z,60.84
2022-12-04T06:16:34.620Z,60.66
2022-12-04T06:19:00.971Z,60.82
2022-12-04T06:21:27.237Z,61.17
2022-12-04T06:23:53.499Z,61.37
2022-12-04T06:26:19.798Z,60.85
2022-12-04T06:28:46.062Z,61.18
2022-12-04T06:31:12.341Z,61.10
2022-12-04T06:33:38.622Z,60.69
2022-12-04T06:36:04.902Z,60.64
2022-12-04T06:38:31.158Z,60.52
2022-12-04T06:40:57.429Z,60.77
2022-12-04T06:43:23.698Z,60.72
2022-12-04T06:45:50.065Z,60.39
2022-12-04T06:48:16.382Z,60.81
2022-12-04T06:50:42.621Z,60.68
2022-12-04T06:53:08.887Z,60.34
2022-12-04T06:55:35.174Z,60.67
2022-12-04T06:58:01.434Z,60.74
2022-12-04T07:00:27.714Z,60.95
2022-12-04T07:02:54.109Z,61.29
2022-12-04T07:05:20.439Z,61.17
2022-12-04T07:07:46.739Z,60.90
2022-12-04T07:10:13.020Z,60.94
2022-12-04T07:12:39.472Z,61.35
2022-12-04T07:15:05.762Z,61.12
2022-12-04T07:17:32.015Z,61.41
2022-12-04T07:19:58.463Z,61.11
2022-12-04T07:22:24.853Z,61.54
2022-12-04T07:24:51.114Z,61.56
2022-12-04T07:27:17.369Z,61.42
2022-12-04T07:29:43.637Z,61.32
2022-12-04T07:32:09.933Z,61.39
2022-12-04T07:34:36.224Z,61.63
2022-12-04T07:37:02.493Z,61.89
2022-12-04T07:39:28.774Z,62.17
2022-12-04T07:41:55.079Z,63.04
2022-12-04T07:44:21.335Z,63.48
2022-12-04T07:46:47.619Z,62.83
2022-12-04T07:49:13.891Z,63.36
2022-12-04T07:51:40.156Z,63.56
2022-12-04T07:54:06.420Z,63.15
2022-12-04T07:56:32.680Z,63.21
2022-12-04T07:58:58.928Z,63.34
2022-12-04T08:01:25.313Z,63.30
2022-12-04T08:03:51.675Z,63.57
2022-12-04T08:06:17.953Z,63.33
2022-12-04T08:08:44.212Z,63.44
2022-12-04T08:11:10.472Z,63.75
2022-12-04T08:13:36.743Z,63.55
2022-12-04T08:16:03.008Z,63.38
2022-12-04T08:18:29.265Z,63.07
2022-12-04T08:20:55.537Z,62.97
2022-12-04T08:23:21.826Z,62.92
2022-12-04T08:25:48.111Z,62.60
2022-12-04T08:28:14.354Z,61.94
2022-12-04T08:30:40.669Z,62.31
2022-12-04T08:33:06.959Z,62.14
2022-12-04T08:35:33.243Z,61.79
2022-12-04T08:37:59.519Z,61.97
2022-12-04T08:40:25.785Z,61.96
2022-12-04T08:42:52.044Z,61.89
2022-12-04T08:45:18.321Z,61.96
2022-12-04T08:47:47.980Z,61.36
2022-12-04T08:50:18.433Z,61.43
2022-12-04T08:52:44.694Z,61.44
2022-12-04T08:55:10.975Z,61.68
2022-12-04T08:57:37.270Z,60.74
2022-12-04T09:00:03.544Z,61.11
2022-12-04T09:02:29.828Z,61.28
2022-12-04T09:04:57.209Z,60.84
2022-12-04T09:07:23.552Z,61.20
2022-12-04T09:09:49.806Z,60.90
2022-12-04T09:12:16.078Z,61.57
2022-12-04T09:14:42.347Z,61.26
2022-12-04T09:17:08.627Z,61.50
2022-12-04T09:19:34.874Z,61.11
2022-12-04T09:22:01.150Z,60.93
2022-12-04T09:24:27.407Z,60.91
2022-12-04T09:26:53.742Z,61.21
2022-12-04T09:29:20.100Z,60.88
2022-12-04T09:31:46.409Z,60.69
2022-12-04T09:34:12.757Z,60.38
2022-12-04T09:36:39.024Z,60.75
2022-12-04T09:39:05.275Z,61.23
2022-12-04T09:41:31.550Z,60.75
2022-12-04T09:43:57.881Z,60.21
2022-12-04T09:46:24.322Z,60.16
2022-12-04T09:48:50.616Z,59.93
2022-12-04T09:51:16.899Z,59.37
2022-12-04T09:53:43.159Z,59.58
2022-12-04T09:56:09.409Z,59.67
2022-12-04T09:58:35.668Z,59.26
2022-12-04T10:01:01.922Z,59.36
2022-12-04T10:03:28.393Z,59.56
2022-12-04T10:05:54.725Z,59.42
2022-12-04T10:08:21.068Z,60.07
2022-12-04T10:10:47.426Z,59.57
2022-12-04T10:13:13.683Z,59.26
2022-12-04T10:15:40.028Z,58.93
2022-12-04T10:18:06.337Z,59.17
2022-12-04T10:20:32.602Z,59.14
2022-12-04T10:22:58.870Z,58.99
2022-12-04T10:25:25.129Z,59.01
2022-12-04T10:27:51.400Z,58.83
2022-12-04T10:30:17.667Z,58.83
2022-12-04T10:32:43.913Z,59.02
2022-12-04T10:35:10.198Z,58.89
2022-12-04T10:37:36.452Z,58.88
2022-12-04T10:40:02.703Z,58.83
2022-12-04T10:42:29.001Z,59.07
2022-12-04T10:44:55.261Z,59.01
2022-12-04T10:47:21.528Z,59.21
2022-12-04T10:49:47.797Z,59.13
2022-12-04T10:52:14.063Z,59.26
2022-12-04T10:54:40.357Z,59.11
2022-12-04T10:57:06.613Z,59.26
2022-12-04T10:59:32.871Z,59.30
2022-12-04T11:02:03.112Z,59.01
2022-12-04T11:04:32.743Z,58.67
2022-12-04T11:06:59.024Z,58.78
2022-12-04T11:09:25.296Z,58.63
2022-12-04T11:11:51.666Z,59.47
2022-12-04T11:14:17.962Z,59.13
2022-12-04T11:16:44.263Z,59.48
2022-12-04T11:19:10.545Z,59.27
2022-12-04T11:21:36.854Z,59.53
2022-12-04T11:24:03.102Z,59.74
2022-12-04T11:26:29.398Z,59.37
2022-12-04T11:28:55.698Z,59.25
2022-12-04T11:31:22.009Z,59.36
2022-12-04T11:33:48.485Z,59.36
2022-12-04T11:36:14.867Z,59.58
2022-12-04T11:38:41.207Z,60.19
2022-12-04T11:41:07.644Z,60.49
2022-12-04T11:43:33.982Z,60.21
2022-12-04T11:46:00.319Z,60.08
2022-12-04T11:48:26.719Z,59.89
2022-12-04T11:50:53.435Z,60.43
2022-12-04T11:53:19.762Z,60.21
2022-12-04T11:55:46.073Z,60.34
2022-12-04T11:58:12.453Z,60.34
2022-12-04T12:00:38.782Z,60.27
2022-12-04T12:03:05.199Z,60.29
2022-12-04T12:05:31.623Z,61.01
2022-12-04T12:08:02.453Z,60.67
2022-12-04T12:10:29.360Z,60.24
2022-12-04T12:12:55.620Z,60.52
2022-12-04T12:15:21.866Z,60.06
2022-12-04T12:17:48.138Z,60.01
2022-12-04T12:20:14.426Z,59.87
2022-12-04T12:22:40.692Z,60.30
2022-12-04T12:25:06.970Z,59.75
2022-12-04T12:27:33.225Z,59.93
2022-12-04T12:29:59.612Z,59.85
2022-12-04T12:32:25.870Z,59.60
2022-12-04T12:34:52.152Z,59.73
2022-12-04T12:37:18.416Z,59.51
2022-12-04T12:39:44.749Z,59.41
2022-12-04T12:42:11.022Z,59.70
2022-12-04T12:44:37.299Z,58.61
2022-12-04T12:47:03.570Z,58.83
2022-12-04T12:49:29.833Z,58.07
2022-12-04T12:51:56.164Z,58.28
2022-12-04T12:54:22.423Z,57.96
2022-12-04T12:56:49.939Z,57.91
2022-12-04T12:59:16.373Z,57.00
2022-12-04T13:01:42.677Z,56.75
2022-12-04T13:04:09.019Z,57.13
2022-12-04T13:06:35.348Z,57.04
2022-12-04T13:09:01.607Z,56.63
2022-12-04T13:11:27.904Z,57.15
2022-12-04T13:13:54.316Z,56.71
2022-12-04T13:16:20.589Z,56.94
2022-12-04T13:18:46.865Z,56.80
2022-12-04T13:21:13.129Z,56.95
2022-12-04T13:23:39.437Z,56.48
2022-12-04T13:26:05.731Z,56.50
2022-12-04T13:28:32.007Z,56.61
2022-12-04T13:30:58.292Z,57.33
2022-12-04T13:33:24.550Z,57.03
2022-12-04T13:35:50.813Z,56.99
2022-12-04T13:38:17.095Z,57.30
2022-12-04T13:40:43.354Z,57.06
2022-12-04T13:43:09.642Z,57.33
2022-12-04T13:45:35.955Z,58.30
2022-12-04T13:48:02.262Z,58.93
2022-12-04T13:50:28.518Z,58.85
2022-12-04T13:52:54.762Z,58.69
2022-12-04T13:55:21.025Z,59.33
2022-12-04T13:57:47.354Z,58.95
2022-12-04T14:00:13.629Z,59.29
2022-12-04T14:02:39.932Z,59.52
2022-12-04T14:05:06.230Z,59.57
2022-12-04T14:07:32.577Z,59.55
2022-12-04T14:09:58.886Z,59.67
2022-12-04T14:12:25.143Z,59.93
2022-12-04T14:14:51.401Z,60.12
2022-12-04T14:17:17.718Z,59.83
2022-12-04T14:19:44.009Z,60.17
2022-12-04T14:22:10.259Z,60.01
2022-12-04T14:24:36.531Z,60.33
2022-12-04T14:27:11.608Z,59.55
2022-12-04T14:29:38.425Z,59.63
2022-12-04T14:32:04.678Z,59.72
2022-12-04T14:34:30.954Z,59.77
2022-12-04T14:36:57.213Z,59.38
2022-12-04T14:39:23.472Z,59.45
2022-12-04T14:41:49.734Z,59.82
2022-12-04T14:44:16.013Z,59.66
2022-12-04T14:46:42.350Z,59.27
2022-12-04T14:49:08.693Z,59.95
2022-12-04T14:51:34.973Z,60.15
2022-12-04T14:54:01.232Z,60.17
2022-12-04T14:56:27.549Z,59.72
2022-12-04T14:58:53.806Z,59.96
2022-12-04T15:01:25.299Z,59.94
2022-12-04T15:03:54.822Z,59.93
2022-12-04T15:06:21.102Z,59.47
2022-12-04T15:08:47.343Z,59.57
2022-12-04T15:11:13.594Z,59.37
2022-12-04T15:13:39.871Z,59.61
2022-12-04T15:16:06.228Z,59.72
2022-12-04T15:18:38.080Z,59.70
2022-12-04T15:21:05.741Z,59.68
2022-12-04T15:23:32.032Z,59.78
2022-12-04T15:25:58.318Z,59.81
2022-12-04T15:28:24.611Z,59.75
2022-12-04T15:30:51.025Z,59.45
2022-12-04T15:33:21.161Z,60.11
2022-12-04T15:35:48.143Z,60.25
2022-12-04T15:38:14.439Z,60.37
2022-12-04T15:40:40.697Z,60.00
2022-12-04T15:43:06.941Z,60.17
2022-12-04T15:45:33.228Z,60.03
2022-12-04T15:47:59.482Z,60.31
2022-12-04T15:50:25.745Z,60.34
2022-12-04T15:52:52.083Z,60.26
2022-12-04T15:55:18.338Z,60.80
2022-12-04T15:57:44.667Z,60.28
2022-12-04T16:00:10.959Z,60.39
2022-12-04T16:02:37.286Z,60.30
2022-12-04T16:05:03.537Z,60.12
2022-12-04T16:07:29.868Z,60.24
2022-12-04T16:10:02.616Z,60.37
2022-12-04T16:12:29.825Z,59.73
2022-12-04T16:14:56.330Z,59.75
2022-12-04T16:17:22.738Z,59.79
2022-12-04T16:19:48.989Z,60.09
2022-12-04T16:22:17.345Z,59.95
2022-12-04T16:24:46.490Z,59.75
2022-12-04T16:27:12.818Z,60.10
2022-12-04T16:29:39.075Z,60.10
2022-12-04T16:32:05.470Z,60.67
2022-12-04T16:34:31.814Z,59.98
2022-12-04T16:36:58.108Z,60.11
2022-12-04T16:39:24.357Z,60.34
2022-12-04T16:41:50.634Z,60.26
2022-12-04T16:44:16.928Z,59.60
2022-12-04T16:46:43.307Z,59.68
2022-12-04T16:49:09.654Z,59.93
2022-12-04T16:51:35.907Z,60.18
2022-12-04T16:54:02.163Z,60.55
2022-12-04T16:56:28.414Z,60.43
2022-12-04T16:58:54.679Z,60.73
2022-12-04T17:01:20.980Z,61.56
2022-12-04T17:03:47.314Z,61.79
2022-12-04T17:06:13.626Z,62.24
2022-12-04T17:08:39.904Z,62.03
2022-12-04T17:11:06.244Z,62.00
2022-12-04T17:13:32.503Z,62.24
2022-12-04T17:15:58.804Z,62.67
2022-12-04T17:18:25.092Z,62.60
2022-12-04T17:20:51.364Z,63.63
2022-12-04T17:23:17.648Z,63.39
2022-12-04T17:25:43.898Z,63.18
2022-12-04T17:28:10.161Z,62.57
2022-12-04T17:30:36.777Z,62.69
2022-12-04T17:33:03.078Z,62.97
2022-12-04T17:35:29.364Z,62.42
2022-12-04T17:37:57.429Z,62.39
2022-12-04T17:40:26.975Z,62.50
2022-12-04T17:42:53.238Z,62.63
2022-12-04T17:45:19.527Z,62.62
2022-12-04T17:47:45.798Z,62.72
2022-12-04T17:50:12.051Z,62.43
2022-12-04T17:52:38.339Z,62.13
2022-12-04T17:55:04.606Z,62.11
2022-12-04T17:57:30.866Z,62.25
2022-12-04T17:59:57.132Z,62.03
2022-12-04T18:02:23.436Z,61.96
2022-12-04T18:04:49.730Z,61.79
2022-12-04T18:07:15.995Z,62.14
2022-12-04T18:09:42.309Z,61.66
2022-12-04T18:12:08.565Z,61.23
2022-12-04T18:14:34.845Z,61.06
2022-12-04T18:17:01.174Z,61.31
2022-12-04T18:19:27.493Z,60.98
2022-12-04T18:21:53.758Z,61.10
2022-12-04T18:24:20.025Z,60.60
2022-12-04T18:26:46.298Z,60.90
2022-12-04T18:29:12.593Z,60.57
2022-12-04T18:31:38.953Z,60.79
2022-12-04T18:34:05.313Z,60.89
2022-12-04T18:36:31.585Z,60.75
2022-12-04T18:38:57.866Z,60.82
2022-12-04T18:41:24.138Z,60.94
2022-12-04T18:43:50.421Z,60.52
2022-12-04T18:46:16.774Z,60.90
2022-12-04T18:48:43.083Z,61.33
2022-12-04T18:51:09.341Z,61.05
2022-12-04T18:53:35.598Z,60.84
2022-12-04T18:56:01.860Z,60.31
2022-12-04T18:58:28.173Z,60.28
2022-12-04T19:00:54.474Z,60.32
2022-12-04T19:03:20.775Z,60.11
2022-12-04T19:05:47.193Z,60.20
2022-12-04T19:08:13.594Z,60.56
2022-12-04T19:10:39.899Z,60.13
2022-12-04T19:13:06.169Z,60.07
2022-12-04T19:15:32.437Z,59.77
2022-12-04T19:17:58.685Z,60.30
2022-12-04T19:20:24.974Z,60.15
2022-12-04T19:22:51.245Z,59.93
2022-12-04T19:25:17.530Z,60.05
2022-12-04T19:27:43.808Z,59.79
2022-12-04T19:30:10.081Z,59.85
2022-12-04T19:32:36.359Z,59.76
2022-12-04T19:35:02.613Z,59.57
2022-12-04T19:37:28.886Z,59.77
2022-12-04T19:39:55.615Z,59.73
2022-12-04T19:42:22.054Z,59.78
2022-12-04T19:44:49.584Z,59.72
2022-12-04T19:47:16.222Z,60.09
2022-12-04T19:49:42.497Z,59.90
2022-12-04T19:52:08.757Z,60.17
2022-12-04T19:54:35.011Z,60.38
2022-12-04T19:57:01.254Z,60.22
2022-12-04T19:59:30.578Z,59.98
2022-12-04T20:02:00.975Z,59.79
2022-12-04T20:04:27.327Z,60.02
2022-12-04T20:06:53.612Z,60.94
2022-12-04T20:09:19.908Z,61.93
2022-12-04T20:11:46.206Z,61.70
2022-12-04T20:14:12.459Z,61.80
2022-12-04T20:16:38.860Z,61.94
2022-12-04T20:19:05.229Z,61.67
2022-12-04T20:21:31.489Z,61.66
2022-12-04T20:23:57.737Z,61.70
2022-12-04T20:26:24.013Z,61.84
2022-12-04T20:28:50.290Z,62.05
2022-12-04T20:31:16.576Z,62.23
2022-12-04T20:33:42.878Z,62.13
2022-12-04T20:36:09.130Z,62.37
2022-12-04T20:38:35.397Z,62.65
2022-12-04T20:41:01.660Z,62.39
2022-12-04T20:43:27.923Z,62.06
2022-12-04T20:45:54.252Z,62.00
2022-12-04T20:48:20.572Z,62.30
2022-12-04T20:50:46.968Z,62.84
2022-12-04T20:53:13.247Z,63.72
2022-12-04T20:55:39.493Z,63.40
2022-12-04T20:58:05.766Z,63.38
2022-12-04T21:00:32.042Z,63.77
2022-12-04T21:02:58.389Z,63.79
2022-12-04T21:05:24.720Z,64.07
2022-12-04T21:07:51.097Z,64.21
2022-12-04T21:10:17.392Z,64.88
2022-12-04T21:12:43.677Z,64.79
2022-12-04T21:15:09.966Z,64.76
2022-12-04T21:17:36.244Z,64.83
2022-12-04T21:20:07.389Z,64.94
2022-12-04T21:22:34.237Z,65.58
2022-12-04T21:25:00.521Z,65.47
2022-12-04T21:27:26.819Z,65.82
2022-12-04T21:29:53.089Z,65.75
2022-12-04T21:32:19.371Z,65.42
2022-12-04T21:34:45.639Z,65.48
2022-12-04T21:37:11.921Z,65.31
2022-12-04T21:39:38.221Z,66.02
2022-12-04T21:42:04.497Z,66.08
2022-12-04T21:44:30.771Z,66.03
2022-12-04T21:46:57.121Z,65.99
2022-12-04T21:49:23.440Z,66.07
2022-12-04T21:51:58.536Z,65.56
2022-12-04T21:54:25.279Z,65.41
2022-12-04T21:56:51.550Z,65.18
2022-12-04T21:59:17.797Z,65.63
2022-12-04T22:01:44.106Z,65.87
2022-12-04T22:04:10.381Z,65.89
2022-12-04T22:06:36.693Z,66.17
2022-12-04T22:09:02.941Z,66.36
2022-12-04T22:11:29.193Z,66.00
2022-12-04T22:13:55.460Z,66.37
2022-12-04T22:16:24.569Z,66.77
2022-12-04T22:18:54.471Z,67.58
2022-12-04T22:21:20.744Z,67.33
2022-12-04T22:23:47.010Z,67.71
2022-12-04T22:26:13.284Z,67.93
2022-12-04T22:28:39.542Z,67.68
2022-12-04T22:31:05.960Z,67.87
2022-12-04T22:33:32.256Z,67.19
2022-12-04T22:35:58.536Z,66.87
2022-12-04T22:38:24.806Z,67.05
2022-12-04T22:40:51.064Z,66.75
2022-12-04T22:43:17.329Z,66.52
2022-12-04T22:45:43.586Z,66.42
2022-12-04T22:48:09.847Z,66.24
2022-12-04T22:50:36.105Z,66.29
2022-12-04T22:53:02.381Z,66.51
2022-12-04T22:55:28.645Z,66.08
2022-12-04T22:57:54.903Z,66.32
2022-12-04T23:00:21.222Z,66.53
2022-12-04T23:02:47.505Z,66.16
2022-12-04T23:05:13.863Z,65.99
2022-12-04T23:07:40.257Z,66.73
2022-12-04T23:10:06.577Z,66.72
2022-12-04T23:12:32.863Z,66.51
2022-12-04T23:14:59.135Z,67.08
2022-12-04T23:17:25.403Z,67.19
2022-12-04T23:19:51.692Z,66.85
2022-12-04T23:22:17.929Z,67.00
2022-12-04T23:24:44.214Z,66.63
2022-12-04T23:27:10.458Z,66.45
2022-12-04T23:29:52.652Z,67.05
2022-12-04T23:32:19.247Z,66.88
2022-12-04T23:34:45.504Z,67.06
2022-12-04T23:37:11.764Z,67.14
2022-12-04T23:39:38.008Z,67.02
2022-12-04T23:42:04.299Z,66.66
2022-12-04T23:44:30.600Z,67.33
2022-12-04T23:46:56.931Z,67.01
2022-12-04T23:49:23.239Z,67.22
2022-12-04T23:51:49.494Z,67.67
2022-12-04T23:54:15.749Z,67.04
2022-12-04T23:56:42.038Z,67.19
2022-12-04T23:59:08.284Z,67.40
